sensor_id;sensor_type;location;lat;lon;timestamp;P1;durP1;ratioP1;P2;durP2;ratioP2
46308;SDS011;32037;50.820;6.494;2023-03-01T00:01:46;2.05;;;1.60;;
46308;SDS011;32037;50.820;6.494;2023-03-01T00:04:15;2.35;;;1.60;;
46308;SDS011;32037;50.820;6.494;2023-03-01T00:06:45;2.60;;;1.60;;
46308;SDS011;32037;50.820;6.494;2023-03-01T00:09:14;1.85;;;1.65;;
46308;SDS011;32037;50.820;6.494;2023-03-01T00:11:43;1.90;;;1.52;;
46308;SDS011;32037;50.820;6.494;2023-03-01T00:14:12;4.25;;;1.77;;
46308;SDS011;32037;50.820;6.494;2023-03-01T00:16:43;2.22;;;1.83;;
46308;SDS011;32037;50.820;6.494;2023-03-01T00:19:14;1.65;;;1.30;;
46308;SDS011;32037;50.820;6.494;2023-03-01T00:21:43;3.38;;;1.95;;
46308;SDS011;32037;50.820;6.494;2023-03-01T00:24:13;2.17;;;1.95;;
46308;SDS011;32037;50.820;6.494;2023-03-01T00:26:42;2.38;;;1.67;;
46308;SDS011;32037;50.820;6.494;2023-03-01T00:29:11;1.83;;;1.73;;
46308;SDS011;32037;50.820;6.494;2023-03-01T00:31:40;2.03;;;1.50;;
46308;SDS011;32037;50.820;6.494;2023-03-01T00:34:09;2.45;;;1.73;;
46308;SDS011;32037;50.820;6.494;2023-03-01T00:36:37;1.60;;;1.50;;
46308;SDS011;32037;50.820;6.494;2023-03-01T00:39:09;1.83;;;1.67;;
46308;SDS011;32037;50.820;6.494;2023-03-01T00:41:40;1.65;;;1.38;;
46308;SDS011;32037;50.820;6.494;2023-03-01T00:44:08;2.10;;;1.60;;
46308;SDS011;32037;50.820;6.494;2023-03-01T00:46:38;3.03;;;1.90;;
46308;SDS011;32037;50.820;6.494;2023-03-01T00:49:07;1.83;;;1.67;;
46308;SDS011;32037;50.820;6.494;2023-03-01T00:51:35;1.92;;;1.60;;
46308;SDS011;32037;50.820;6.494;2023-03-01T00:54:05;1.83;;;1.60;;
46308;SDS011;32037;50.820;6.494;2023-03-01T00:56:39;2.17;;;1.50;;
46308;SDS011;32037;50.820;6.494;2023-03-01T00:59:08;1.60;;;1.50;;
46308;SDS011;32037;50.820;6.494;2023-03-01T01:01:38;2.15;;;1.92;;
46308;SDS011;32037;50.820;6.494;2023-03-01T01:04:07;2.40;;;1.75;;
46308;SDS011;32037;50.820;6.494;2023-03-01T01:06:41;3.15;;;2.40;;
46308;SDS011;32037;50.820;6.494;2023-03-01T01:09:13;2.33;;;1.88;;
46308;SDS011;32037;50.820;6.494;2023-03-01T01:11:45;2.40;;;1.73;;
46308;SDS011;32037;50.820;6.494;2023-03-01T01:14:15;2.72;;;1.98;;
46308;SDS011;32037;50.820;6.494;2023-03-01T01:16:45;2.10;;;1.90;;
46308;SDS011;32037;50.820;6.494;2023-03-01T01:19:13;2.55;;;2.13;;
46308;SDS011;32037;50.820;6.494;2023-03-01T01:21:42;1.88;;;1.65;;
46308;SDS011;32037;50.820;6.494;2023-03-01T01:24:13;2.78;;;2.08;;
46308;SDS011;32037;50.820;6.494;2023-03-01T01:26:42;2.15;;;1.67;;
46308;SDS011;32037;50.820;6.494;2023-03-01T01:29:12;2.38;;;1.70;;
46308;SDS011;32037;50.820;6.494;2023-03-01T01:31:41;2.10;;;1.75;;
46308;SDS011;32037;50.820;6.494;2023-03-01T01:34:12;2.25;;;2.03;;
46308;SDS011;32037;50.820;6.494;2023-03-01T01:36:42;2.50;;;2.00;;
46308;SDS011;32037;50.820;6.494;2023-03-01T01:39:12;2.30;;;1.85;;
46308;SDS011;32037;50.820;6.494;2023-03-01T01:41:41;2.58;;;2.03;;
46308;SDS011;32037;50.820;6.494;2023-03-01T01:44:11;2.10;;;1.50;;
46308;SDS011;32037;50.820;6.494;2023-03-01T01:46:42;2.00;;;1.80;;
46308;SDS011;32037;50.820;6.494;2023-03-01T01:49:19;2.15;;;1.92;;
46308;SDS011;32037;50.820;6.494;2023-03-01T01:51:55;2.33;;;2.13;;
46308;SDS011;32037;50.820;6.494;2023-03-01T01:54:31;3.20;;;1.90;;
46308;SDS011;32037;50.820;6.494;2023-03-01T01:57:10;2.60;;;2.17;;
46308;SDS011;32037;50.820;6.494;2023-03-01T01:59:45;2.85;;;2.25;;
46308;SDS011;32037;50.820;6.494;2023-03-01T02:02:17;1.92;;;1.70;;
46308;SDS011;32037;50.820;6.494;2023-03-01T02:04:47;2.10;;;1.90;;
46308;SDS011;32037;50.820;6.494;2023-03-01T02:07:18;2.53;;;2.28;;
46308;SDS011;32037;50.820;6.494;2023-03-01T02:09:51;1.95;;;1.73;;
46308;SDS011;32037;50.820;6.494;2023-03-01T02:12:21;2.20;;;1.80;;
46308;SDS011;32037;50.820;6.494;2023-03-01T02:14:52;2.35;;;1.90;;
46308;SDS011;32037;50.820;6.494;2023-03-01T02:17:20;2.28;;;1.98;;
46308;SDS011;32037;50.820;6.494;2023-03-01T02:19:52;2.30;;;1.85;;
46308;SDS011;32037;50.820;6.494;2023-03-01T02:22:34;3.05;;;2.15;;
46308;SDS011;32037;50.820;6.494;2023-03-01T02:25:10;2.70;;;2.05;;
46308;SDS011;32037;50.820;6.494;2023-03-01T02:27:49;2.97;;;2.53;;
46308;SDS011;32037;50.820;6.494;2023-03-01T02:30:27;3.50;;;3.00;;
46308;SDS011;32037;50.820;6.494;2023-03-01T02:32:57;4.10;;;2.33;;
46308;SDS011;32037;50.820;6.494;2023-03-01T02:35:30;3.28;;;2.42;;
46308;SDS011;32037;50.820;6.494;2023-03-01T02:38:01;2.72;;;1.90;;
46308;SDS011;32037;50.820;6.494;2023-03-01T02:40:34;2.83;;;2.22;;
46308;SDS011;32037;50.820;6.494;2023-03-01T02:43:06;2.65;;;2.45;;
46308;SDS011;32037;50.820;6.494;2023-03-01T02:45:47;2.17;;;1.75;;
46308;SDS011;32037;50.820;6.494;2023-03-01T02:48:17;2.95;;;2.05;;
46308;SDS011;32037;50.820;6.494;2023-03-01T02:50:52;2.35;;;1.95;;
46308;SDS011;32037;50.820;6.494;2023-03-01T02:53:33;2.55;;;2.35;;
46308;SDS011;32037;50.820;6.494;2023-03-01T02:56:09;2.33;;;2.13;;
46308;SDS011;32037;50.820;6.494;2023-03-01T02:58:40;3.08;;;2.40;;
46308;SDS011;32037;50.820;6.494;2023-03-01T03:01:14;3.90;;;2.60;;
46308;SDS011;32037;50.820;6.494;2023-03-01T03:03:43;2.97;;;1.98;;
46308;SDS011;32037;50.820;6.494;2023-03-01T03:06:12;3.38;;;2.00;;
46308;SDS011;32037;50.820;6.494;2023-03-01T03:08:41;3.10;;;2.67;;
46308;SDS011;32037;50.820;6.494;2023-03-01T03:11:10;2.88;;;2.15;;
46308;SDS011;32037;50.820;6.494;2023-03-01T03:13:39;3.28;;;2.00;;
46308;SDS011;32037;50.820;6.494;2023-03-01T03:16:17;2.80;;;2.22;;
46308;SDS011;32037;50.820;6.494;2023-03-01T03:18:46;3.08;;;1.95;;
46308;SDS011;32037;50.820;6.494;2023-03-01T03:21:15;3.40;;;2.50;;
46308;SDS011;32037;50.820;6.494;2023-03-01T03:23:44;2.42;;;2.05;;
46308;SDS011;32037;50.820;6.494;2023-03-01T03:26:13;2.65;;;2.10;;
46308;SDS011;32037;50.820;6.494;2023-03-01T03:28:41;3.00;;;2.30;;
46308;SDS011;32037;50.820;6.494;2023-03-01T03:31:10;4.13;;;2.75;;
46308;SDS011;32037;50.820;6.494;2023-03-01T03:33:40;3.67;;;2.45;;
46308;SDS011;32037;50.820;6.494;2023-03-01T03:36:08;2.92;;;2.45;;
46308;SDS011;32037;50.820;6.494;2023-03-01T03:38:39;2.95;;;2.10;;
46308;SDS011;32037;50.820;6.494;2023-03-01T03:41:08;3.25;;;2.95;;
46308;SDS011;32037;50.820;6.494;2023-03-01T03:43:37;3.88;;;2.97;;
46308;SDS011;32037;50.820;6.494;2023-03-01T03:46:06;2.50;;;2.30;;
46308;SDS011;32037;50.820;6.494;2023-03-01T03:48:36;3.40;;;2.60;;
46308;SDS011;32037;50.820;6.494;2023-03-01T03:51:10;4.00;;;2.78;;
46308;SDS011;32037;50.820;6.494;2023-03-01T03:53:40;4.97;;;2.92;;
46308;SDS011;32037;50.820;6.494;2023-03-01T03:56:09;3.10;;;2.15;;
46308;SDS011;32037;50.820;6.494;2023-03-01T03:58:38;3.63;;;2.38;;
46308;SDS011;32037;50.820;6.494;2023-03-01T04:01:07;3.17;;;2.42;;
46308;SDS011;32037;50.820;6.494;2023-03-01T04:03:35;2.63;;;2.25;;
46308;SDS011;32037;50.820;6.494;2023-03-01T04:06:04;2.47;;;2.15;;
46308;SDS011;32037;50.820;6.494;2023-03-01T04:08:34;2.97;;;2.50;;
46308;SDS011;32037;50.820;6.494;2023-03-01T04:11:03;2.83;;;2.17;;
46308;SDS011;32037;50.820;6.494;2023-03-01T04:13:46;3.08;;;2.42;;
46308;SDS011;32037;50.820;6.494;2023-03-01T04:16:15;3.35;;;2.40;;
46308;SDS011;32037;50.820;6.494;2023-03-01T04:18:44;3.20;;;2.58;;
46308;SDS011;32037;50.820;6.494;2023-03-01T04:21:13;3.17;;;2.05;;
46308;SDS011;32037;50.820;6.494;2023-03-01T04:23:43;3.10;;;2.80;;
46308;SDS011;32037;50.820;6.494;2023-03-01T04:26:12;3.40;;;2.75;;
46308;SDS011;32037;50.820;6.494;2023-03-01T04:28:41;3.45;;;2.50;;
46308;SDS011;32037;50.820;6.494;2023-03-01T04:31:12;4.10;;;2.55;;
46308;SDS011;32037;50.820;6.494;2023-03-01T04:33:45;4.13;;;3.60;;
46308;SDS011;32037;50.820;6.494;2023-03-01T04:36:15;3.30;;;2.75;;
46308;SDS011;32037;50.820;6.494;2023-03-01T04:38:46;3.63;;;2.70;;
46308;SDS011;32037;50.820;6.494;2023-03-01T04:41:15;2.75;;;2.15;;
46308;SDS011;32037;50.820;6.494;2023-03-01T04:43:45;3.75;;;2.38;;
46308;SDS011;32037;50.820;6.494;2023-03-01T04:46:14;3.22;;;2.47;;
46308;SDS011;32037;50.820;6.494;2023-03-01T04:48:44;5.00;;;2.83;;
46308;SDS011;32037;50.820;6.494;2023-03-01T04:51:14;3.85;;;3.08;;
46308;SDS011;32037;50.820;6.494;2023-03-01T04:53:43;3.05;;;2.35;;
46308;SDS011;32037;50.820;6.494;2023-03-01T04:56:13;2.85;;;2.55;;
46308;SDS011;32037;50.820;6.494;2023-03-01T04:58:44;4.28;;;2.75;;
46308;SDS011;32037;50.820;6.494;2023-03-01T05:01:14;2.40;;;2.20;;
46308;SDS011;32037;50.820;6.494;2023-03-01T05:03:46;4.18;;;2.53;;
46308;SDS011;32037;50.820;6.494;2023-03-01T05:06:15;3.95;;;2.80;;
46308;SDS011;32037;50.820;6.494;2023-03-01T05:08:45;3.10;;;2.42;;
46308;SDS011;32037;50.820;6.494;2023-03-01T05:11:15;4.70;;;2.67;;
46308;SDS011;32037;50.820;6.494;2023-03-01T05:13:43;3.38;;;2.90;;
46308;SDS011;32037;50.820;6.494;2023-03-01T05:16:12;4.53;;;2.65;;
46308;SDS011;32037;50.820;6.494;2023-03-01T05:18:41;3.42;;;2.72;;
46308;SDS011;32037;50.820;6.494;2023-03-01T05:21:10;3.28;;;2.65;;
46308;SDS011;32037;50.820;6.494;2023-03-01T05:23:42;2.95;;;2.60;;
46308;SDS011;32037;50.820;6.494;2023-03-01T05:26:11;4.03;;;3.20;;
46308;SDS011;32037;50.820;6.494;2023-03-01T05:28:55;4.65;;;3.17;;
46308;SDS011;32037;50.820;6.494;2023-03-01T05:31:26;3.92;;;3.28;;
46308;SDS011;32037;50.820;6.494;2023-03-01T05:33:54;3.08;;;2.78;;
46308;SDS011;32037;50.820;6.494;2023-03-01T05:36:23;3.10;;;2.45;;
46308;SDS011;32037;50.820;6.494;2023-03-01T05:38:52;2.88;;;2.30;;
46308;SDS011;32037;50.820;6.494;2023-03-01T05:41:20;3.97;;;3.25;;
46308;SDS011;32037;50.820;6.494;2023-03-01T05:43:49;2.90;;;2.40;;
46308;SDS011;32037;50.820;6.494;2023-03-01T05:46:19;2.70;;;2.50;;
46308;SDS011;32037;50.820;6.494;2023-03-01T05:48:50;3.15;;;2.78;;
46308;SDS011;32037;50.820;6.494;2023-03-01T05:51:18;2.85;;;2.53;;
46308;SDS011;32037;50.820;6.494;2023-03-01T05:53:48;3.05;;;2.65;;
46308;SDS011;32037;50.820;6.494;2023-03-01T05:56:17;4.40;;;3.17;;
46308;SDS011;32037;50.820;6.494;2023-03-01T05:58:46;2.72;;;2.53;;
46308;SDS011;32037;50.820;6.494;2023-03-01T06:01:16;2.92;;;2.55;;
46308;SDS011;32037;50.820;6.494;2023-03-01T06:03:46;2.85;;;2.40;;
46308;SDS011;32037;50.820;6.494;2023-03-01T06:06:14;3.85;;;2.63;;
46308;SDS011;32037;50.820;6.494;2023-03-01T06:08:43;2.83;;;2.42;;
46308;SDS011;32037;50.820;6.494;2023-03-01T06:11:12;4.30;;;2.67;;
46308;SDS011;32037;50.820;6.494;2023-03-01T06:13:41;3.45;;;3.13;;
46308;SDS011;32037;50.820;6.494;2023-03-01T06:16:10;4.47;;;2.95;;
46308;SDS011;32037;50.820;6.494;2023-03-01T06:18:39;5.65;;;3.17;;
46308;SDS011;32037;50.820;6.494;2023-03-01T06:21:09;4.95;;;2.80;;
46308;SDS011;32037;50.820;6.494;2023-03-01T06:23:38;4.10;;;3.05;;
46308;SDS011;32037;50.820;6.494;2023-03-01T06:26:06;3.70;;;3.08;;
46308;SDS011;32037;50.820;6.494;2023-03-01T06:28:36;3.05;;;2.45;;
46308;SDS011;32037;50.820;6.494;2023-03-01T06:31:04;3.67;;;2.42;;
46308;SDS011;32037;50.820;6.494;2023-03-01T06:33:35;3.55;;;2.75;;
46308;SDS011;32037;50.820;6.494;2023-03-01T06:36:04;3.70;;;3.05;;
46308;SDS011;32037;50.820;6.494;2023-03-01T06:38:34;2.60;;;2.22;;
46308;SDS011;32037;50.820;6.494;2023-03-01T06:41:03;3.83;;;3.08;;
46308;SDS011;32037;50.820;6.494;2023-03-01T06:43:33;3.70;;;3.08;;
46308;SDS011;32037;50.820;6.494;2023-03-01T06:46:03;3.75;;;3.15;;
46308;SDS011;32037;50.820;6.494;2023-03-01T06:48:33;3.45;;;2.70;;
46308;SDS011;32037;50.820;6.494;2023-03-01T06:51:02;2.78;;;2.53;;
46308;SDS011;32037;50.820;6.494;2023-03-01T06:53:31;3.30;;;2.67;;
46308;SDS011;32037;50.820;6.494;2023-03-01T06:56:01;3.78;;;2.50;;
46308;SDS011;32037;50.820;6.494;2023-03-01T06:58:29;3.10;;;2.80;;
46308;SDS011;32037;50.820;6.494;2023-03-01T07:00:58;4.20;;;3.03;;
46308;SDS011;32037;50.820;6.494;2023-03-01T07:03:27;4.32;;;2.88;;
46308;SDS011;32037;50.820;6.494;2023-03-01T07:05:55;3.75;;;2.97;;
46308;SDS011;32037;50.820;6.494;2023-03-01T07:08:24;2.95;;;2.58;;
46308;SDS011;32037;50.820;6.494;2023-03-01T07:10:55;3.28;;;3.00;;
46308;SDS011;32037;50.820;6.494;2023-03-01T07:13:26;4.50;;;3.10;;
46308;SDS011;32037;50.820;6.494;2023-03-01T07:15:54;3.78;;;3.03;;
46308;SDS011;32037;50.820;6.494;2023-03-01T07:18:23;3.60;;;3.00;;
46308;SDS011;32037;50.820;6.494;2023-03-01T07:20:52;3.80;;;2.55;;
46308;SDS011;32037;50.820;6.494;2023-03-01T07:23:20;3.85;;;2.95;;
46308;SDS011;32037;50.820;6.494;2023-03-01T07:25:52;5.88;;;2.70;;
46308;SDS011;32037;50.820;6.494;2023-03-01T07:28:22;3.35;;;2.90;;
46308;SDS011;32037;50.820;6.494;2023-03-01T07:30:52;3.95;;;3.40;;
46308;SDS011;32037;50.820;6.494;2023-03-01T07:33:21;3.75;;;2.80;;
46308;SDS011;32037;50.820;6.494;2023-03-01T07:35:55;4.00;;;3.28;;
46308;SDS011;32037;50.820;6.494;2023-03-01T07:38:25;2.63;;;2.40;;
46308;SDS011;32037;50.820;6.494;2023-03-01T07:40:54;4.53;;;2.85;;
46308;SDS011;32037;50.820;6.494;2023-03-01T07:43:26;4.28;;;2.92;;
46308;SDS011;32037;50.820;6.494;2023-03-01T07:45:58;3.53;;;2.75;;
46308;SDS011;32037;50.820;6.494;2023-03-01T07:48:28;4.05;;;3.20;;
46308;SDS011;32037;50.820;6.494;2023-03-01T07:50:57;4.55;;;3.38;;
46308;SDS011;32037;50.820;6.494;2023-03-01T07:53:26;5.10;;;3.13;;
46308;SDS011;32037;50.820;6.494;2023-03-01T07:56:02;3.05;;;2.63;;
46308;SDS011;32037;50.820;6.494;2023-03-01T07:58:31;3.95;;;2.90;;
46308;SDS011;32037;50.820;6.494;2023-03-01T08:01:03;4.15;;;3.03;;
46308;SDS011;32037;50.820;6.494;2023-03-01T08:03:33;4.47;;;3.40;;
46308;SDS011;32037;50.820;6.494;2023-03-01T08:06:02;4.68;;;3.30;;
46308;SDS011;32037;50.820;6.494;2023-03-01T08:08:32;3.92;;;2.88;;
46308;SDS011;32037;50.820;6.494;2023-03-01T08:11:03;3.88;;;3.15;;
46308;SDS011;32037;50.820;6.494;2023-03-01T08:13:33;4.68;;;3.25;;
46308;SDS011;32037;50.820;6.494;2023-03-01T08:16:04;3.70;;;3.20;;
46308;SDS011;32037;50.820;6.494;2023-03-01T08:18:34;8.68;;;6.57;;
46308;SDS011;32037;50.820;6.494;2023-03-01T08:21:03;9.53;;;7.60;;
46308;SDS011;32037;50.820;6.494;2023-03-01T08:23:32;8.10;;;6.50;;
46308;SDS011;32037;50.820;6.494;2023-03-01T08:26:05;6.78;;;5.68;;
46308;SDS011;32037;50.820;6.494;2023-03-01T08:28:35;5.70;;;4.72;;
46308;SDS011;32037;50.820;6.494;2023-03-01T08:31:14;6.45;;;5.30;;
46308;SDS011;32037;50.820;6.494;2023-03-01T08:33:45;5.40;;;4.80;;
46308;SDS011;32037;50.820;6.494;2023-03-01T08:36:17;6.32;;;5.72;;
46308;SDS011;32037;50.820;6.494;2023-03-01T08:38:51;8.85;;;5.68;;
46308;SDS011;32037;50.820;6.494;2023-03-01T08:41:20;6.38;;;5.30;;
46308;SDS011;32037;50.820;6.494;2023-03-01T08:43:48;5.75;;;4.43;;
46308;SDS011;32037;50.820;6.494;2023-03-01T08:46:19;6.03;;;5.40;;
46308;SDS011;32037;50.820;6.494;2023-03-01T08:48:48;6.88;;;5.82;;
46308;SDS011;32037;50.820;6.494;2023-03-01T08:51:17;7.05;;;5.65;;
46308;SDS011;32037;50.820;6.494;2023-03-01T08:53:46;7.07;;;4.28;;
46308;SDS011;32037;50.820;6.494;2023-03-01T08:56:16;6.10;;;4.40;;
46308;SDS011;32037;50.820;6.494;2023-03-01T08:58:46;5.93;;;4.72;;
46308;SDS011;32037;50.820;6.494;2023-03-01T09:01:16;6.05;;;4.97;;
46308;SDS011;32037;50.820;6.494;2023-03-01T09:03:47;7.68;;;4.70;;
46308;SDS011;32037;50.820;6.494;2023-03-01T09:06:16;5.57;;;4.68;;
46308;SDS011;32037;50.820;6.494;2023-03-01T09:08:45;5.40;;;4.35;;
46308;SDS011;32037;50.820;6.494;2023-03-01T09:11:17;6.78;;;5.88;;
46308;SDS011;32037;50.820;6.494;2023-03-01T09:13:48;5.95;;;5.43;;
46308;SDS011;32037;50.820;6.494;2023-03-01T09:16:19;5.28;;;4.78;;
46308;SDS011;32037;50.820;6.494;2023-03-01T09:18:50;4.53;;;4.03;;
46308;SDS011;32037;50.820;6.494;2023-03-01T09:21:20;6.22;;;4.45;;
46308;SDS011;32037;50.820;6.494;2023-03-01T09:24:05;8.75;;;4.65;;
46308;SDS011;32037;50.820;6.494;2023-03-01T09:26:34;7.22;;;5.25;;
46308;SDS011;32037;50.820;6.494;2023-03-01T09:29:02;6.30;;;4.88;;
46308;SDS011;32037;50.820;6.494;2023-03-01T09:31:31;5.65;;;5.00;;
46308;SDS011;32037;50.820;6.494;2023-03-01T09:34:01;5.45;;;4.47;;
46308;SDS011;32037;50.820;6.494;2023-03-01T09:36:29;6.20;;;4.03;;
46308;SDS011;32037;50.820;6.494;2023-03-01T09:38:58;4.95;;;4.38;;
46308;SDS011;32037;50.820;6.494;2023-03-01T09:41:34;5.53;;;3.92;;
46308;SDS011;32037;50.820;6.494;2023-03-01T09:44:10;4.85;;;3.95;;
46308;SDS011;32037;50.820;6.494;2023-03-01T09:46:48;6.45;;;4.05;;
46308;SDS011;32037;50.820;6.494;2023-03-01T09:49:19;5.43;;;4.85;;
46308;SDS011;32037;50.820;6.494;2023-03-01T09:51:54;5.07;;;4.07;;
46308;SDS011;32037;50.820;6.494;2023-03-01T09:54:25;4.38;;;3.95;;
46308;SDS011;32037;50.820;6.494;2023-03-01T09:56:57;5.38;;;4.22;;
46308;SDS011;32037;50.820;6.494;2023-03-01T09:59:35;6.68;;;4.18;;
46308;SDS011;32037;50.820;6.494;2023-03-01T10:02:18;4.13;;;3.72;;
46308;SDS011;32037;50.820;6.494;2023-03-01T10:04:54;6.25;;;4.28;;
46308;SDS011;32037;50.820;6.494;2023-03-01T10:07:32;6.60;;;4.22;;
46308;SDS011;32037;50.820;6.494;2023-03-01T10:10:14;5.93;;;4.38;;
46308;SDS011;32037;50.820;6.494;2023-03-01T10:12:51;9.80;;;6.93;;
46308;SDS011;32037;50.820;6.494;2023-03-01T10:15:22;23.50;;;10.80;;
46308;SDS011;32037;50.820;6.494;2023-03-01T10:17:56;12.90;;;8.27;;
46308;SDS011;32037;50.820;6.494;2023-03-01T10:20:33;13.93;;;7.82;;
46308;SDS011;32037;50.820;6.494;2023-03-01T10:23:10;11.85;;;7.30;;
46308;SDS011;32037;50.820;6.494;2023-03-01T10:25:43;10.13;;;7.20;;
46308;SDS011;32037;50.820;6.494;2023-03-01T10:28:20;9.68;;;6.50;;
46308;SDS011;32037;50.820;6.494;2023-03-01T10:30:53;12.88;;;6.47;;
46308;SDS011;32037;50.820;6.494;2023-03-01T10:33:23;8.75;;;6.22;;
46308;SDS011;32037;50.820;6.494;2023-03-01T10:35:55;8.48;;;6.15;;
46308;SDS011;32037;50.820;6.494;2023-03-01T10:38:24;8.02;;;5.85;;
46308;SDS011;32037;50.820;6.494;2023-03-01T10:40:54;12.18;;;7.30;;
46308;SDS011;32037;50.820;6.494;2023-03-01T10:43:24;8.10;;;6.65;;
46308;SDS011;32037;50.820;6.494;2023-03-01T10:45:54;8.18;;;5.95;;
46308;SDS011;32037;50.820;6.494;2023-03-01T10:48:26;10.93;;;6.60;;
46308;SDS011;32037;50.820;6.494;2023-03-01T10:51:06;7.03;;;6.25;;
46308;SDS011;32037;50.820;6.494;2023-03-01T10:53:36;8.15;;;5.78;;
46308;SDS011;32037;50.820;6.494;2023-03-01T10:56:06;7.10;;;5.88;;
46308;SDS011;32037;50.820;6.494;2023-03-01T10:58:36;6.63;;;4.90;;
46308;SDS011;32037;50.820;6.494;2023-03-01T11:01:06;6.80;;;5.45;;
46308;SDS011;32037;50.820;6.494;2023-03-01T11:04:03;9.63;;;5.90;;
46308;SDS011;32037;50.820;6.494;2023-03-01T11:06:39;7.35;;;5.05;;
46308;SDS011;32037;50.820;6.494;2023-03-01T11:09:15;5.68;;;4.85;;
46308;SDS011;32037;50.820;6.494;2023-03-01T11:11:45;5.80;;;4.75;;
46308;SDS011;32037;50.820;6.494;2023-03-01T11:14:20;7.40;;;5.30;;
46308;SDS011;32037;50.820;6.494;2023-03-01T11:17:02;8.57;;;5.20;;
46308;SDS011;32037;50.820;6.494;2023-03-01T11:19:36;7.85;;;5.00;;
46308;SDS011;32037;50.820;6.494;2023-03-01T11:22:08;7.35;;;5.10;;
46308;SDS011;32037;50.820;6.494;2023-03-01T11:24:41;6.63;;;4.22;;
46308;SDS011;32037;50.820;6.494;2023-03-01T11:27:30;6.85;;;5.22;;
46308;SDS011;32037;50.820;6.494;2023-03-01T11:30:03;10.95;;;5.18;;
46308;SDS011;32037;50.820;6.494;2023-03-01T11:32:36;7.35;;;5.15;;
46308;SDS011;32037;50.820;6.494;2023-03-01T11:35:10;8.75;;;5.85;;
46308;SDS011;32037;50.820;6.494;2023-03-01T11:37:51;5.57;;;5.07;;
46308;SDS011;32037;50.820;6.494;2023-03-01T11:40:32;6.55;;;4.60;;
46308;SDS011;32037;50.820;6.494;2023-03-01T11:43:04;6.80;;;4.53;;
46308;SDS011;32037;50.820;6.494;2023-03-01T11:45:42;5.72;;;4.35;;
46308;SDS011;32037;50.820;6.494;2023-03-01T11:48:26;5.22;;;4.60;;
46308;SDS011;32037;50.820;6.494;2023-03-01T11:51:20;6.90;;;4.70;;
46308;SDS011;32037;50.820;6.494;2023-03-01T11:53:58;6.57;;;4.75;;
46308;SDS011;32037;50.820;6.494;2023-03-01T11:56:40;5.80;;;5.03;;
46308;SDS011;32037;50.820;6.494;2023-03-01T12:02:27;6.10;;;4.63;;
46308;SDS011;32037;50.820;6.494;2023-03-01T12:05:20;6.30;;;5.05;;
46308;SDS011;32037;50.820;6.494;2023-03-01T12:08:04;7.97;;;4.85;;
46308;SDS011;32037;50.820;6.494;2023-03-01T12:10:41;5.45;;;4.18;;
46308;SDS011;32037;50.820;6.494;2023-03-01T12:16:22;7.30;;;4.93;;
46308;SDS011;32037;50.820;6.494;2023-03-01T12:19:08;5.45;;;4.32;;
46308;SDS011;32037;50.820;6.494;2023-03-01T12:21:56;5.05;;;4.25;;
46308;SDS011;32037;50.820;6.494;2023-03-01T12:24:39;5.82;;;4.40;;
46308;SDS011;32037;50.820;6.494;2023-03-01T12:27:22;6.55;;;4.78;;
46308;SDS011;32037;50.820;6.494;2023-03-01T12:30:16;5.45;;;3.97;;
46308;SDS011;32037;50.820;6.494;2023-03-01T12:32:58;5.40;;;4.50;;
46308;SDS011;32037;50.820;6.494;2023-03-01T12:35:43;5.53;;;4.15;;
46308;SDS011;32037;50.820;6.494;2023-03-01T12:38:37;10.45;;;5.13;;
46308;SDS011;32037;50.820;6.494;2023-03-01T12:41:26;6.50;;;3.83;;
46308;SDS011;32037;50.820;6.494;2023-03-01T12:44:09;6.93;;;4.38;;
46308;SDS011;32037;50.820;6.494;2023-03-01T12:46:55;5.03;;;4.53;;
46308;SDS011;32037;50.820;6.494;2023-03-01T12:49:40;4.45;;;3.72;;
46308;SDS011;32037;50.820;6.494;2023-03-01T12:52:14;5.90;;;4.72;;
46308;SDS011;32037;50.820;6.494;2023-03-01T12:54:46;5.60;;;4.15;;
46308;SDS011;32037;50.820;6.494;2023-03-01T12:57:18;7.03;;;4.47;;
46308;SDS011;32037;50.820;6.494;2023-03-01T12:59:58;7.97;;;4.60;;
46308;SDS011;32037;50.820;6.494;2023-03-01T13:02:36;4.85;;;4.25;;
46308;SDS011;32037;50.820;6.494;2023-03-01T13:05:18;5.82;;;4.20;;
46308;SDS011;32037;50.820;6.494;2023-03-01T13:08:00;5.15;;;3.47;;
46308;SDS011;32037;50.820;6.494;2023-03-01T13:10:34;5.90;;;4.00;;
46308;SDS011;32037;50.820;6.494;2023-03-01T13:13:12;8.10;;;5.18;;
46308;SDS011;32037;50.820;6.494;2023-03-01T13:15:47;4.20;;;3.28;;
46308;SDS011;32037;50.820;6.494;2023-03-01T13:18:27;6.15;;;4.68;;
46308;SDS011;32037;50.820;6.494;2023-03-01T13:20:57;6.20;;;3.85;;
46308;SDS011;32037;50.820;6.494;2023-03-01T13:23:29;3.97;;;3.58;;
46308;SDS011;32037;50.820;6.494;2023-03-01T13:26:01;6.75;;;4.15;;
46308;SDS011;32037;50.820;6.494;2023-03-01T13:28:44;6.18;;;3.55;;
46308;SDS011;32037;50.820;6.494;2023-03-01T13:34:41;5.15;;;4.10;;
46308;SDS011;32037;50.820;6.494;2023-03-01T13:37:24;5.63;;;3.47;;
46308;SDS011;32037;50.820;6.494;2023-03-01T13:40:00;5.35;;;3.70;;
46308;SDS011;32037;50.820;6.494;2023-03-01T13:42:35;6.03;;;4.35;;
46308;SDS011;32037;50.820;6.494;2023-03-01T13:45:33;4.13;;;3.30;;
46308;SDS011;32037;50.820;6.494;2023-03-01T13:48:09;5.10;;;3.80;;
46308;SDS011;32037;50.820;6.494;2023-03-01T13:50:45;3.97;;;3.65;;
46308;SDS011;32037;50.820;6.494;2023-03-01T13:53:17;7.20;;;4.20;;
46308;SDS011;32037;50.820;6.494;2023-03-01T13:55:47;5.97;;;3.83;;
46308;SDS011;32037;50.820;6.494;2023-03-01T13:58:19;6.45;;;3.45;;
46308;SDS011;32037;50.820;6.494;2023-03-01T14:00:55;7.10;;;4.05;;
46308;SDS011;32037;50.820;6.494;2023-03-01T14:03:26;5.00;;;3.25;;
46308;SDS011;32037;50.820;6.494;2023-03-01T14:06:03;3.55;;;3.10;;
46308;SDS011;32037;50.820;6.494;2023-03-01T14:08:43;5.43;;;4.43;;
46308;SDS011;32037;50.820;6.494;2023-03-01T14:11:21;5.55;;;4.10;;
46308;SDS011;32037;50.820;6.494;2023-03-01T14:14:18;4.18;;;3.50;;
46308;SDS011;32037;50.820;6.494;2023-03-01T14:20:12;4.72;;;3.50;;
46308;SDS011;32037;50.820;6.494;2023-03-01T14:22:45;3.28;;;2.95;;
46308;SDS011;32037;50.820;6.494;2023-03-01T14:25:19;3.63;;;3.10;;
46308;SDS011;32037;50.820;6.494;2023-03-01T14:27:55;4.85;;;4.40;;
46308;SDS011;32037;50.820;6.494;2023-03-01T14:30:32;4.20;;;3.80;;
46308;SDS011;32037;50.820;6.494;2023-03-01T14:33:06;6.53;;;3.88;;
46308;SDS011;32037;50.820;6.494;2023-03-01T14:35:51;4.93;;;3.80;;
46308;SDS011;32037;50.820;6.494;2023-03-01T14:38:27;5.80;;;3.95;;
46308;SDS011;32037;50.820;6.494;2023-03-01T14:41:01;4.82;;;3.70;;
46308;SDS011;32037;50.820;6.494;2023-03-01T14:43:32;5.57;;;3.80;;
46308;SDS011;32037;50.820;6.494;2023-03-01T14:46:01;7.53;;;3.97;;
46308;SDS011;32037;50.820;6.494;2023-03-01T14:48:30;5.53;;;3.67;;
46308;SDS011;32037;50.820;6.494;2023-03-01T14:50:59;4.63;;;3.28;;
46308;SDS011;32037;50.820;6.494;2023-03-01T14:53:29;6.50;;;4.45;;
46308;SDS011;32037;50.820;6.494;2023-03-01T14:56:15;6.00;;;3.97;;
46308;SDS011;32037;50.820;6.494;2023-03-01T14:58:45;5.07;;;4.15;;
46308;SDS011;32037;50.820;6.494;2023-03-01T15:01:15;5.43;;;3.70;;
46308;SDS011;32037;50.820;6.494;2023-03-01T15:03:46;5.22;;;3.80;;
46308;SDS011;32037;50.820;6.494;2023-03-01T15:06:17;4.72;;;3.63;;
46308;SDS011;32037;50.820;6.494;2023-03-01T15:08:49;5.35;;;3.97;;
46308;SDS011;32037;50.820;6.494;2023-03-01T15:11:21;4.20;;;3.80;;
46308;SDS011;32037;50.820;6.494;2023-03-01T15:13:51;5.78;;;3.72;;
46308;SDS011;32037;50.820;6.494;2023-03-01T15:16:21;4.53;;;3.33;;
46308;SDS011;32037;50.820;6.494;2023-03-01T15:18:53;4.45;;;3.90;;
46308;SDS011;32037;50.820;6.494;2023-03-01T15:21:24;5.53;;;3.88;;
46308;SDS011;32037;50.820;6.494;2023-03-01T15:23:58;4.80;;;3.80;;
46308;SDS011;32037;50.820;6.494;2023-03-01T15:26:31;4.70;;;4.07;;
46308;SDS011;32037;50.820;6.494;2023-03-01T15:29:03;5.43;;;4.00;;
46308;SDS011;32037;50.820;6.494;2023-03-01T15:31:32;4.07;;;3.30;;
46308;SDS011;32037;50.820;6.494;2023-03-01T15:34:19;4.07;;;3.65;;